Aérodrome :
LOGIN :

S'inscrire | Disclaimer

   EN    FR    IT 

 










Légende :    VFR   VFR Marginal   IFR   IFR Intensif   IFR Très Intensif
Visi : 
Plafond : 
>= 8 km
>= 3000ft
5 à 8 km
1000 à 3000 ft
1500m à 5 km
500 à 1000 ft
800 à 1500m
200 à 500 ft
< 800m
< 200 ft
Symboles :   Orages  Brouillard  Fortes neiges  Fortes précipitations  Vent > 20 kt
SIGMETs :   Divers  Orages  Givrage  Turbulence  Onde Orograph.  Cendres Volcan.







- Altitude de l'aérodrome : 359 ft
- Code IATA : BVA
- Voir les cartes d'approche


LFOB - Beauvais

DERNIER METAR :
  • 250630Z AUTO 29004KT 2500 BR VV/// 12/11 Q1017 BECMG 4000 BR BKN006

METARs EXPIRÉS :
  • 250600Z AUTO 31003KT 0350 0300 R30/0550N R12/0400N FG VV/// 11/10 Q1017 BECMG 4000 BR BKN006
  • 250530Z AUTO 00000KT 0300 0250 R30/0375N R12/0350N FG VV/// 10/10 Q1017 BECMG 4000 BR BKN006
  • 250500Z AUTO 31002KT 0300 R30/0350N R12/0450N FG VV/// 10/09 Q1017 BECMG 4000 BR OVC007
  • 250430Z AUTO 31004KT 0250 0200 R30/0350U R12/0375U FG VV/// 10/09 Q1017 BECMG 4000 BR OVC007
  • 250400Z AUTO 00000KT 0200 R30/0225N R12/0225D FG VV/// 10/10 Q1017 NOSIG

TAF TAF LFOB
Valide du 25 à 06h jusqu'au 26 à 06h UTC


250500Z 2506/2606 VRB02KT 0400 FG VV///
TEMPO 2506/2507 0200
BECMG 2507/2509 4000 BR BKN006
BECMG 2509/2511 9999 NSW SCT030
TEMPO 2512/2602 3000 SHRA BKN040CB
PROB40
TEMPO 2516/2602 VRB25G40KT 1000 TSRAGR
ATIS : +33 3 44 11 49 28
Pas de NOTAMs connus pour ce terrain.



MET'MAP, la Météo Aéronautique d'un coup d'oeil ! - Copyright ORBIFLY Décembre 2007 - Disclaimer

ORBIFLY MET'MAP TEAM :

Programmation & Développement : Alexandra Zaïnal
Conception & Développement : Baudouin d'Aumeries
Co-Programmation & Développement : Marc-Olivier Méhu
Soutien technique & logistique : Manuel Goepfert

Contact : metmap@orbifly.com




SOURCES & CREDITS :

   NOAA